Allbright, Missouri
Current Conditions -  °F | °C
As of 8:35 AM on Saturday 01 Nov 2014 (Local Time) from KFAM Reporting Station
Clear Clear  
Wind Chill: 23°   Ceiling: Unl
Heat Index: 30°   Visibility: 10mi
Dew Point: 21°   Wind: 7mph
Humidity: 69%   Direction: 320°NW
Pressure: 30.43"   Gusts: NA
Location:  37.4061°N, 90.1985°W
Report Text: KFAM 011335Z AUTO 32006KT 10SM CLR M01/M06 A3043 RMK AO1
Loading
Personal Weather Stations






























Interactive Weather Map
Tropical Storm Tracking
New forecast layout! Learn more

10-Day Weather Forecast

Advertisements
Track Severe Weather on mobile